Yosemite National Park, California
Current Conditions -  °F | °C
As of 4:55 AM on Thursday 30 Oct 2014 (Local Time) from KMMH Reporting Station
Clear Clear  
Wind Chill: 28°   Ceiling: Unl
Heat Index: 28°   Visibility: 10mi
Dew Point: 18°   Wind: 0mph
Humidity: 64%   Direction: NA
Pressure: 30.28"   Gusts: NA
Location:  37.6076°N, 119.603°W
Report Text: KMMH 301155Z AUTO 00000KT 10SM CLR M02/M08 A3028 RMK AO1
Loading
Personal Weather Stations






























Interactive Weather Map
Tropical Storm Tracking
New forecast layout! Learn more

10-Day Weather Forecast

Advertisements
Track Severe Weather on mobile